Amunt
Inicio > meteoXarxa
Fes-te'n soci

METEOXARXA

Catí
Ubicació l′Avellà
Comarca l′Alt Maestrat
Altitud (msnm) 931
Posició geogràfica 40° 30' 19.00" N, 00° 0' 1.00" W
Model Davis Vantage Pro2
Presa de dades
Font de les dades Meteocatí
Estadístiques. Resum
Data Temperatura (ºC) Humitat (%) Pressió (hPa) Vent (km/h) Precipit. (mm)
Mínima Mitjana Màxima Mínima Mitjana Màxima Mínima Mitjana Màxima Predom. Mitjana Ràfega màxima Total Dies de pluja
Mínima Mitjana Màxima Mínima Mitjana Màxima
Últimes dades diàries
24-03-2017 0,8     3,7     6,6 73,0 82,0 91,0 1.011,0 1.012,5 1.014,0 34,0 0,4  
23-03-2017 1,9     6,0     10,1 36,0 63,5 91,0 1.005,0 1.008,0 1.011,0 35,0 2,6  
22-03-2017 4,8     8,8     12,8 60,0 76,0 92,0 1.007,0 1.010,0 1.013,0 31,0 0,0  
21-03-2017 6,8     11,2     15,6 57,0 68,5 80,0 1.011,0 1.012,5 1.014,0 29,0 0,0  
20-03-2017 9,3     13,4     17,6 46,0 57,0 68,0 1.011,0 1.012,5 1.014,0 26,0 0,0  
19-03-2017 9,4     14,2     19,0 27,0 45,5 64,0 1.013,0 1.016,0 1.019,0 26,0 0,0  
18-03-2017 8,2     13,7     19,2 17,0 38,0 59,0 1.018,0 1.019,5 1.021,0 29,0 0,0  
17-03-2017 5,8     11,0     16,2 30,0 50,0 70,0 1.020,0 1.021,0 1.022,0 19,0 0,0  
16-03-2017 5,4     10,5     15,6 27,0 56,0 85,0 1.021,0 1.022,5 1.024,0 26,0 0,0  
15-03-2017 6,3     10,6     14,8 57,0 73,5 90,0 1.024,0 1.026,0 1.028,0 29,0 0,0  
14-03-2017 5,4     10,2     15,1 55,0 74,0 93,0 1.027,0 1.028,5 1.030,0 40,0 0,0  
13-03-2017 1,6     4,2     6,7 91,0 93,0 95,0 1.012,0 1.020,0 1.028,0 48,0 35,0  
12-03-2017 3,4     9,9     16,4 43,0 67,0 91,0 1.011,0 1.012,5 1.014,0 61,0 6,8  
11-03-2017 13,7     18,1     22,5 26,0 51,0 76,0 1.012,0 1.014,5 1.017,0 27,0 0,0  
10-03-2017 15,8     20,2     24,7 18,0 30,5 43,0 1.016,0 1.018,5 1.021,0 48,0 0,0  
09-03-2017 12,5     18,9     25,2 22,0 34,5 47,0 1.021,0 1.023,5 1.026,0 32,0 0,0  
08-03-2017 8,1     12,7     17,3 32,0 56,5 81,0 1.021,0 1.023,5 1.026,0 63,0 0,0  
07-03-2017 5,8     10,5     15,2 43,0 58,0 73,0 1.017,0 1.019,0 1.021,0 84,0 0,0  
06-03-2017 8,2     12,3     16,4 51,0 67,0 83,0 1.016,0 1.018,0 1.020,0 76,0 0,0  
05-03-2017 2,8     8,8     14,8 56,0 68,5 81,0 1.011,0 1.015,0 1.019,0 39,0 0,0  
04-03-2017 1,9     6,7     11,4 39,0 66,5 94,0 991,0 1.001,0 1.011,0 74,0 1,2  
03-03-2017 2,4     5,3     8,3 75,0 85,0 95,0 994,0 1.005,0 1.016,0 56,0 16,8  
02-03-2017 6,7     10,9     15,1 55,0 70,5 86,0 1.016,0 1.017,5 1.019,0 29,0 0,0  
01-03-2017 2,9     8,2     13,5 50,0 69,5 89,0 1.015,0 1.017,5 1.020,0 39,0 0,2  
28-02-2017 3,8     7,8     11,9 54,0 70,0 86,0 1.009,0 1.012,0 1.015,0 51,0 0,0  
27-02-2017 6,1     10,5     14,9 55,0 74,0 93,0 1.010,0 1.013,0 1.016,0 29,0 0,0  
26-02-2017 2,4     7,8     13,2 45,0 69,5 94,0 1.016,0 1.018,5 1.021,0 22,0 0,0  
25-02-2017 1,8     7,5     13,1 39,0 66,5 94,0 1.016,0 1.018,5 1.021,0 32,0 0,0  
24-02-2017 3,0     6,7     10,3 63,0 77,0 91,0 1.009,0 1.012,5 1.016,0 61,0 5,8  
23-02-2017 9,3     12,8     16,2 22,0 51,0 80,0 1.011,0 1.015,0 1.019,0 29,0 0,0  
22-02-2017 6,6     11,0     15,4 27,0 43,0 59,0 1.019,0 1.021,0 1.023,0 24,0 0,0  
21-02-2017 3,6     9,2     14,8 33,0 59,5 86,0 1.022,0 1.023,5 1.025,0 24,0 0,0  
Dades del mes en curs (actualitzades fins l'últim dia disponible)
03/2017 0,8 6,2 15,8 10,8 6,6 15,4 25,2 17,0 62,6 95,0 991,0 1.016,4 1.030,0   84,0 63,0  
Últimes dades mensuals
02/2017 0,2 4,1 9,3 7,8 5,5 11,6 16,2 43,0 72,6 97,0 1.009,0 1.017,5 1.030,5 92,0 32,0 12
01/2017 -6,7 1,7 8,1 5,0 1,1 8,4 17,0 47,0 71,0 95,5 1.012,5 1.019,5 1.028,5 98,0 89,6 10
12/2016 1,4 5,0 8,2 8,2 4,1 11,3 18,4 33,0 78,3 97,5 1.014,0 1.026,4 1.035,5 61,0 72,8 12
11/2016 1,5 5,9 12,1 9,4 7,3 12,9 21,6 60,0 75,0 97,0 1.001,0 1.014,8 1.029,5 77,0 63,6 12
10/2016 5,6 10,8 14,7 14,8 10,9 18,7 25,2 58,5 78,3 95,5 1.000,5 1.016,1 1.028,5 43,0 36,4 15
09/2016 9,6 14,4 23,1 19,2 15,9 24,0 35,2 31,5 66,8 83,5 1.010,5 1.016,9 1.026,5 66,0 36,8 9
08/2016 9,9 15,4 18,1 21,4 21,9 27,3 30,8 50,5 65,1 82,0 1.009,0 1.016,9 1.022,0 61,0 13,0 8
07/2016 8,8 16,3 20,5 22,0 23,3 27,7 31,7 40,5 57,8 76,5 1.011,0 1.015,7 1.020,5 59,0 11,4 8
06/2016 8,5 13,3 18,9 18,9 18,7 24,4 30,5 43,5 61,1 80,0 1.001,0 1.014,4 1.023,0 84,0 23,8 8
05/2016 1,4 8,5 14,4 13,0 9,8 17,5 23,2 46,0 70,7 98,0 1.004,5 1.013,4 1.021,5 77,0 76,8 9
04/2016 1,4 5,8 10,4 9,9 8,1 14,1 21,8 52,5 70,7 95,5 1.005,5 1.012,3 1.018,5 88,0 64,6 13
03/2016 -0,5 3,4 9,1 7,2 4,2 11,1 18,7 53,5 70,6 97,0 1.001,5 1.013,4 1.023,0 101,0 54,2 10
02/2016 -3,7 3,5 9,8 7,6 4,4 11,7 18,3 42,5 66,2 93,5 990,0 1.016,3 1.034,0 93,0 22,0 7
Dades de l'any en curs (actualitzades fins l'últim dia disponible)
2017 -6,7 3,8 15,8 7,6 1,1 11,5 25,2 17,0 69,1 97,0 991,0 1.017,9 1.032,0   98,0 184,6  
Últimes dades anuals